Time;durP1;ratioP1;P1;durP2;ratioP2;P2;SDS_P1;SDS_P2;PMS_P1;PMS_P2;Temp;Humidity;BMP_temperature;BMP_pressure;BME280_temperature;BME280_humidity;BME280_pressure;Samples;Min_cycle;Max_cycle;Signal;HPM_P1;HPM_P2
2023/02/17 00:03:09;;;;;;;5.50;3.63;;;;;;;15.00;40.15;99627.72;7091922;27;20298;-79
2023/02/17 00:06:31;;;;;;;8.20;3.57;;;;;;;14.58;40.61;99625.50;7091674;27;20731;-78
2023/02/17 00:09:53;;;;;;;5.17;3.77;;;;;;;14.65;40.24;99626.31;7092739;27;20206;-79
2023/02/17 00:13:14;;;;;;;5.37;3.80;;;;;;;15.01;39.71;99630.22;7091666;27;20342;-80
2023/02/17 00:16:36;;;;;;;6.97;3.77;;;;;;;15.14;40.18;99615.75;7090835;27;20296;-80
2023/02/17 00:19:59;;;;;;;5.37;3.63;;;;;;;15.46;39.10;99607.50;7091232;27;20303;-80
2023/02/17 00:23:20;;;;;;;6.27;3.80;;;;;;;15.20;39.54;99614.88;7090351;27;20652;-81
2023/02/17 00:26:42;;;;;;;4.60;3.53;;;;;;;15.07;40.04;99614.94;7089721;27;20308;-80
2023/02/17 00:30:03;;;;;;;4.93;3.90;;;;;;;14.96;39.98;99593.88;7089156;27;20273;-81
2023/02/17 00:33:25;;;;;;;5.30;3.87;;;;;;;15.08;40.04;99614.75;7089502;27;20299;-80
2023/02/17 00:36:48;;;;;;;5.40;3.77;;;;;;;14.95;40.27;99609.34;7089449;27;20369;-80
2023/02/17 00:40:10;;;;;;;3.83;3.50;;;;;;;15.01;39.62;99605.78;7089511;27;20218;-79
2023/02/17 00:43:32;;;;;;;6.90;3.50;;;;;;;15.08;40.50;99603.88;7089473;27;20227;-81
2023/02/17 00:46:53;;;;;;;8.00;3.90;;;;;;;15.12;40.44;99607.00;7085533;27;20380;-81
2023/02/17 00:50:15;;;;;;;6.47;4.50;;;;;;;14.87;41.50;99614.19;7089332;27;20300;-81
2023/02/17 00:53:38;;;;;;;5.93;3.77;;;;;;;14.97;41.36;99609.97;7090350;27;20202;-80
2023/02/17 00:56:59;;;;;;;6.07;3.83;;;;;;;14.80;41.35;99606.03;7096498;27;20311;-80
2023/02/17 01:00:21;;;;;;;6.90;3.97;;;;;;;15.00;41.28;99611.41;7094296;27;20288;-80
2023/02/17 01:03:42;;;;;;;4.00;3.53;;;;;;;15.16;40.82;99590.03;7092793;27;20260;-80
2023/02/17 01:07:04;;;;;;;6.23;3.90;;;;;;;15.14;40.57;99583.16;7090762;27;20287;-80
2023/02/17 01:10:27;;;;;;;5.53;3.70;;;;;;;15.34;40.48;99608.41;7091942;27;20210;-80
2023/02/17 01:13:49;;;;;;;5.00;4.13;;;;;;;15.19;40.74;99616.78;7090891;27;20259;-80
2023/02/17 01:17:10;;;;;;;6.83;4.27;;;;;;;15.36;40.59;99614.44;7090965;27;20298;-81
2023/02/17 01:20:34;;;;;;;7.40;4.83;;;;;;;15.06;40.83;99591.56;7091968;27;20264;-80
2023/02/17 01:23:58;;;;;;;6.47;4.20;;;;;;;15.02;41.13;99601.16;7091608;27;20229;-80
2023/02/17 01:27:21;;;;;;;5.97;3.70;;;;;;;14.96;40.75;99602.88;7090345;27;20834;-80
2023/02/17 01:30:42;;;;;;;6.47;3.50;;;;;;;14.65;41.33;99593.75;7089425;27;20344;-80
2023/02/17 01:34:04;;;;;;;5.27;3.70;;;;;;;14.87;41.06;99587.03;7087984;27;20264;-80
2023/02/17 01:37:26;;;;;;;5.37;3.90;;;;;;;14.84;41.27;99590.16;7087353;27;20345;-80
2023/02/17 01:40:48;;;;;;;4.93;3.27;;;;;;;15.12;40.49;99594.25;7093411;27;20349;-79
2023/02/17 01:44:16;;;;;;;4.87;3.17;;;;;;;14.99;40.48;99596.19;7093593;27;20318;-80
2023/02/17 01:47:37;;;;;;;6.17;3.27;;;;;;;14.73;41.11;99575.38;7092649;27;20828;-80
2023/02/17 01:51:02;;;;;;;8.07;3.73;;;;;;;14.63;41.20;99563.28;7093710;27;20340;-82
2023/02/17 01:54:27;;;;;;;6.67;3.67;;;;;;;15.05;40.57;99589.91;7093554;27;20256;-83
2023/02/17 01:57:49;;;;;;;5.77;3.60;;;;;;;14.95;40.75;99584.91;7092998;27;20833;-82
2023/02/17 02:01:12;;;;;;;5.77;3.60;;;;;;;14.98;40.49;99576.31;7093639;27;20274;-82
2023/02/17 02:04:36;;;;;;;6.40;3.63;;;;;;;14.92;40.72;99565.50;7092916;27;20224;-82
2023/02/17 02:07:58;;;;;;;5.23;4.13;;;;;;;15.11;40.26;99564.59;7092462;27;20274;-82
2023/02/17 02:11:19;;;;;;;4.83;3.70;;;;;;;15.28;39.94;99557.63;7092953;27;20302;-82
2023/02/17 02:14:41;;;;;;;5.57;3.73;;;;;;;15.10;40.16;99549.34;7093101;27;20260;-82
2023/02/17 02:18:16;;;;;;;6.03;3.57;;;;;;;14.88;40.60;99558.81;7096134;27;20356;-80
2023/02/17 02:22:04;;;;;;;3.70;2.90;;;;;;;15.20;39.94;99549.69;7113858;27;20233;-79
2023/02/17 02:25:39;;;;;;;8.30;3.80;;;;;;;15.52;39.33;99549.53;7087028;27;20312;-80
2023/02/17 02:29:18;;;;;;;7.43;3.63;;;;;;;15.44;39.31;99538.09;7098663;27;20300;-79
2023/02/17 02:33:05;;;;;;;4.60;3.73;;;;;;;15.29;39.71;99560.09;7098610;27;20266;-80
2023/02/17 02:36:29;;;;;;;5.77;3.20;;;;;;;15.13;40.27;99546.19;7081052;27;20228;-80
2023/02/17 02:39:52;;;;;;;6.50;3.67;;;;;;;15.28;39.69;99546.75;7097124;27;20274;-80
2023/02/17 02:43:14;;;;;;;4.33;3.10;;;;;;;15.46;39.23;99530.56;7096677;27;20322;-79
2023/02/17 02:46:36;;;;;;;6.57;3.50;;;;;;;15.60;39.27;99538.44;7095897;27;20347;-80
2023/02/17 02:49:59;;;;;;;8.77;3.47;;;;;;;15.75;38.78;99543.56;7095329;27;20293;-80
2023/02/17 02:53:40;;;;;;;4.50;3.17;;;;;;;15.83;38.92;99552.28;7096529;27;20296;-79
2023/02/17 02:57:16;;;;;;;5.07;3.20;;;;;;;15.75;39.22;99530.78;7093751;27;20226;-80
2023/02/17 03:00:42;;;;;;;4.83;3.50;;;;;;;15.38;39.59;99541.69;7095030;27;20189;-80
2023/02/17 03:04:08;;;;;;;4.43;3.60;;;;;;;15.24;40.13;99530.06;7095604;27;20206;-80
2023/02/17 03:07:34;;;;;;;4.53;3.53;;;;;;;14.89;40.75;99517.88;7099043;27;20547;-80
2023/02/17 03:10:56;;;;;;;7.07;4.13;;;;;;;15.10;40.45;99535.75;7095352;27;20238;-80
2023/02/17 03:14:19;;;;;;;6.80;4.07;;;;;;;14.95;40.48;99535.19;7094325;27;20272;-81
2023/02/17 03:17:40;;;;;;;8.33;4.03;;;;;;;15.12;40.68;99526.34;7093252;27;20632;-81
2023/02/17 03:21:06;;;;;;;4.27;3.40;;;;;;;15.06;40.75;99531.81;7093169;27;20292;-80
2023/02/17 03:24:29;;;;;;;5.47;3.60;;;;;;;14.87;41.06;99514.53;7093564;27;20231;-80
2023/02/17 03:27:50;;;;;;;5.47;4.03;;;;;;;14.55;41.24;99510.06;7093097;27;20365;-80
2023/02/17 03:31:12;;;;;;;6.13;3.30;;;;;;;15.11;40.59;99519.22;7092451;27;20205;-80
2023/02/17 03:34:33;;;;;;;6.70;3.60;;;;;;;15.27;40.44;99518.72;7092493;27;20291;-80
2023/02/17 03:37:55;;;;;;;8.07;4.00;;;;;;;15.05;40.57;99520.09;7092021;27;20774;-81
2023/02/17 03:41:18;;;;;;;6.77;3.47;;;;;;;14.94;40.95;99507.22;7091985;27;20301;-81
2023/02/17 03:44:39;;;;;;;4.50;3.70;;;;;;;14.86;41.69;99528.34;7092185;27;20377;-82
2023/02/17 03:48:01;;;;;;;4.53;3.30;;;;;;;15.09;41.42;99515.06;7091347;27;20365;-81
2023/02/17 03:51:24;;;;;;;6.43;3.30;;;;;;;14.94;42.01;99526.22;7092549;27;20340;-81
2023/02/17 03:54:45;;;;;;;4.60;3.60;;;;;;;15.14;41.34;99521.53;7063755;28;20283;-81
2023/02/17 03:58:08;;;;;;;3.90;3.50;;;;;;;15.00;41.40;99529.94;7076420;27;20260;-81
2023/02/17 04:01:30;;;;;;;7.10;4.13;;;;;;;14.98;41.31;99491.31;7091601;27;20676;-81
2023/02/17 04:04:52;;;;;;;5.30;3.10;;;;;;;15.41;40.44;99530.41;7091322;27;20319;-80
2023/02/17 04:08:13;;;;;;;7.90;3.60;;;;;;;15.40;40.53;99520.59;7090860;27;20335;-81
2023/02/17 04:11:35;;;;;;;5.43;3.53;;;;;;;15.56;40.59;99526.31;7091202;27;20295;-81
2023/02/17 04:14:57;;;;;;;8.27;4.33;;;;;;;15.30;41.01;99526.47;7090522;27;20310;-81
2023/02/17 04:18:20;;;;;;;5.33;3.50;;;;;;;15.16;41.81;99535.72;7090237;27;20267;-81
2023/02/17 04:21:41;;;;;;;5.17;3.33;;;;;;;15.24;41.78;99540.91;7090868;27;20724;-81
2023/02/17 04:25:03;;;;;;;5.33;3.60;;;;;;;15.09;42.08;99537.63;7090582;27;20319;-82
2023/02/17 04:28:25;;;;;;;3.63;3.33;;;;;;;15.08;41.91;99535.13;7089748;27;20754;-80
2023/02/17 04:31:48;;;;;;;5.47;3.33;;;;;;;15.28;41.82;99542.13;7090686;27;20215;-81
2023/02/17 04:35:09;;;;;;;6.03;3.60;;;;;;;15.24;41.31;99519.19;7089985;27;20354;-80
2023/02/17 04:38:32;;;;;;;5.43;3.43;;;;;;;15.19;41.83;99531.72;7089035;27;20656;-80
2023/02/17 04:41:53;;;;;;;5.37;3.60;;;;;;;14.93;42.12;99534.59;7089865;27;20233;-81
2023/02/17 04:45:15;;;;;;;5.97;3.80;;;;;;;15.22;41.45;99528.59;7089182;27;20314;-80
2023/02/17 04:48:38;;;;;;;5.50;4.00;;;;;;;15.45;40.77;99521.56;7088673;27;20635;-81
2023/02/17 04:51:59;;;;;;;4.97;3.80;;;;;;;14.96;41.83;99515.13;7091810;27;20270;-81
2023/02/17 04:55:21;;;;;;;4.47;3.37;;;;;;;15.37;41.28;99516.41;7095837;27;20271;-80
2023/02/17 04:58:42;;;;;;;7.73;4.80;;;;;;;15.54;40.96;99514.84;7093272;27;20374;-80
2023/02/17 05:02:04;;;;;;;5.40;3.60;;;;;;;15.25;41.66;99517.28;7092623;27;20362;-81
2023/02/17 05:05:27;;;;;;;5.17;3.67;;;;;;;14.37;43.03;99506.34;7091638;27;20307;-80
2023/02/17 05:08:49;;;;;;;5.93;4.13;;;;;;;15.07;41.87;99498.16;7090923;27;20360;-80
2023/02/17 05:12:11;;;;;;;5.13;3.53;;;;;;;14.63;42.79;99498.97;7090742;27;20205;-81
2023/02/17 05:15:32;;;;;;;5.83;3.90;;;;;;;14.35;43.08;99493.03;7101118;27;20251;-81
2023/02/17 05:18:54;;;;;;;3.60;3.30;;;;;;;14.84;42.82;99506.00;7091764;27;20703;-80
2023/02/17 05:22:16;;;;;;;3.83;3.33;;;;;;;15.27;42.23;99507.03;7091745;27;20291;-80
2023/02/17 05:25:39;;;;;;;5.90;4.00;;;;;;;14.83;42.38;99469.88;7090370;27;20369;-80
2023/02/17 05:29:01;;;;;;;4.83;3.83;;;;;;;14.94;42.46;99479.22;7084633;27;20777;-79
2023/02/17 05:32:23;;;;;;;6.23;4.03;;;;;;;14.88;43.02;99512.66;7084713;27;20371;-80
2023/02/17 05:35:44;;;;;;;4.63;3.73;;;;;;;15.27;42.27;99504.31;7085517;27;20342;-81
2023/02/17 05:39:07;;;;;;;4.10;3.70;;;;;;;15.49;41.92;99500.22;7085709;27;20653;-80
2023/02/17 05:42:29;;;;;;;7.33;4.17;;;;;;;15.68;41.62;99508.25;7089350;27;20661;-80
2023/02/17 05:45:50;;;;;;;3.83;3.37;;;;;;;15.32;42.18;99474.59;7089422;27;20284;-81
2023/02/17 05:49:12;;;;;;;4.10;3.70;;;;;;;15.64;41.83;99514.34;7092708;27;20302;-79
2023/02/17 05:52:33;;;;;;;7.00;4.07;;;;;;;15.36;42.46;99522.91;7090002;27;20300;-80
2023/02/17 05:55:57;;;;;;;7.03;4.20;;;;;;;15.04;43.46;99531.19;7088601;27;20695;-80
2023/02/17 05:59:19;;;;;;;4.30;3.80;;;;;;;15.04;43.49;99542.88;7089137;27;20293;-80
2023/02/17 06:02:41;;;;;;;7.73;3.60;;;;;;;15.24;42.92;99540.91;7089488;27;20586;-80
2023/02/17 06:06:02;;;;;;;7.30;3.57;;;;;;;15.21;43.38;99538.63;7088759;27;20366;-80
2023/02/17 06:09:24;;;;;;;7.03;4.20;;;;;;;15.34;43.18;99532.31;7088839;27;20320;-80
2023/02/17 06:12:47;;;;;;;4.40;3.40;;;;;;;14.87;43.82;99549.03;7086928;27;20286;-80
2023/02/17 06:16:08;;;;;;;7.43;3.87;;;;;;;14.95;44.28;99543.34;7078320;27;20254;-80
2023/02/17 06:19:30;;;;;;;10.37;3.80;;;;;;;15.23;43.63;99536.50;7073546;28;20346;-79
2023/02/17 06:22:51;;;;;;;6.83;3.90;;;;;;;15.59;43.03;99558.50;7071387;27;20206;-79
2023/02/17 06:26:13;;;;;;;8.13;4.37;;;;;;;15.62;43.00;99571.66;7077219;27;20733;-80
2023/02/17 06:29:36;;;;;;;6.07;4.10;;;;;;;15.33;44.09;99569.53;7086662;27;20246;-80
2023/02/17 06:32:58;;;;;;;7.00;4.03;;;;;;;15.69;43.27;99561.56;7084793;27;20625;-80
2023/02/17 06:36:19;;;;;;;6.57;4.17;;;;;;;15.67;43.27;99571.00;7082125;27;20198;-80
2023/02/17 06:39:41;;;;;;;12.53;3.93;;;;;;;15.35;43.96;99553.84;7094245;27;20700;-80
2023/02/17 06:43:02;;;;;;;8.47;3.87;;;;;;;15.57;44.12;99555.16;7094173;27;20287;-80
2023/02/17 06:46:25;;;;;;;4.20;3.40;;;;;;;15.50;43.96;99553.53;7082080;27;20288;-81
2023/02/17 06:49:46;;;;;;;5.00;4.00;;;;;;;15.38;44.41;99518.06;7070766;27;20368;-80
2023/02/17 06:53:08;;;;;;;4.40;3.57;;;;;;;15.01;45.38;99565.03;7094422;27;20223;-80
2023/02/17 06:56:30;;;;;;;5.33;4.30;;;;;;;15.30;44.86;99558.22;7090846;27;20339;-80
2023/02/17 06:59:51;;;;;;;7.00;3.57;;;;;;;15.14;45.37;99567.69;7091384;27;20219;-81
2023/02/17 07:03:14;;;;;;;4.77;3.80;;;;;;;15.37;44.91;99562.59;7091644;27;20268;-80
2023/02/17 07:06:35;;;;;;;5.77;4.03;;;;;;;15.51;44.59;99558.75;7091812;27;20228;-80
2023/02/17 07:09:57;;;;;;;6.00;3.80;;;;;;;15.59;44.42;99544.91;7096929;27;20299;-81
2023/02/17 07:13:18;;;;;;;5.40;3.70;;;;;;;15.18;45.40;99579.81;7092109;27;20282;-80
2023/02/17 07:16:40;;;;;;;6.87;3.50;;;;;;;15.55;44.83;99587.19;7091830;27;20303;-81
2023/02/17 07:20:03;;;;;;;4.87;3.67;;;;;;;15.80;44.49;99589.97;7092966;27;20338;-81
2023/02/17 07:23:24;;;;;;;8.30;3.87;;;;;;;15.80;44.48;99592.69;7102040;27;20265;-80
2023/02/17 07:26:46;;;;;;;6.57;3.90;;;;;;;15.82;44.05;99563.38;7095819;27;20376;-80
2023/02/17 07:30:08;;;;;;;5.70;3.77;;;;;;;15.30;45.56;99588.09;7094562;27;20314;-79
2023/02/17 07:33:30;;;;;;;6.03;3.33;;;;;;;15.49;45.05;99589.91;7095833;27;20302;-81
2023/02/17 07:36:53;;;;;;;15.00;8.87;;;;;;;15.19;45.44;99596.94;7093865;27;20763;-80
2023/02/17 07:40:14;;;;;;;5.90;4.93;;;;;;;15.38;45.42;99593.31;7095548;27;20211;-80
2023/02/17 07:43:36;;;;;;;6.07;3.27;;;;;;;15.26;45.14;99555.09;7095427;27;20858;-80
2023/02/17 07:46:57;;;;;;;5.83;4.10;;;;;;;15.47;44.92;99565.69;7092004;27;20270;-82
2023/02/17 07:50:19;;;;;;;5.23;3.40;;;;;;;15.40;45.44;99583.09;7091266;27;20301;-83
2023/02/17 07:53:42;;;;;;;4.53;3.23;;;;;;;14.85;46.08;99523.94;7092081;27;20259;-82
2023/02/17 07:57:03;;;;;;;8.17;3.43;;;;;;;15.44;45.83;99604.16;7089805;27;20746;-83
2023/02/17 08:00:25;;;;;;;5.83;3.70;;;;;;;15.47;45.72;99586.59;7090310;27;20272;-83
2023/02/17 08:03:48;;;;;;;5.77;3.60;;;;;;;15.76;45.25;99607.75;7069565;27;20203;-84
2023/02/17 08:07:09;;;;;;;5.70;3.60;;;;;;;14.93;45.85;99526.44;7085013;27;20549;-83
2023/02/17 08:14:11;;;;;;;6.70;3.30;;;;;;;15.45;46.58;99605.00;7091605;27;20202;-82
2023/02/17 08:17:33;;;;;;;6.77;3.60;;;;;;;15.02;46.84;99558.56;7093294;27;20335;-84
2023/02/17 08:20:55;;;;;;;6.00;3.50;;;;;;;15.56;46.42;99613.31;7093534;27;20253;-83
2023/02/17 08:24:18;;;;;;;6.00;3.10;;;;;;;15.05;47.70;99612.44;7090522;27;20237;-83
2023/02/17 08:27:41;;;;;;;4.03;2.87;;;;;;;15.38;47.40;99607.75;7088977;27;20300;-82
2023/02/17 08:31:02;;;;;;;2.83;2.50;;;;;;;15.83;46.78;99609.38;7090312;27;20276;-82
2023/02/17 08:34:24;;;;;;;5.17;3.00;;;;;;;15.66;47.09;99613.66;7090084;27;20772;-82
2023/02/17 08:37:45;;;;;;;7.57;2.93;;;;;;;15.72;46.92;99606.50;7089008;27;20308;-83
2023/02/17 08:41:13;;;;;;;4.47;2.90;;;;;;;15.77;47.02;99601.25;7089409;27;20262;-83
2023/02/17 08:44:37;;;;;;;4.37;3.20;;;;;;;15.76;47.29;99588.72;7090557;27;20264;-82
2023/02/17 08:47:58;;;;;;;4.83;3.10;;;;;;;15.79;47.70;99605.44;7089218;27;20248;-83
2023/02/17 08:51:22;;;;;;;3.77;3.03;;;;;;;15.20;49.25;99610.31;7090012;27;20273;-83
2023/02/17 08:54:44;;;;;;;4.80;2.93;;;;;;;16.06;47.23;99606.94;7090057;27;20208;-83
2023/02/17 08:58:06;;;;;;;3.60;3.10;;;;;;;15.79;47.74;99599.16;7087413;27;20225;-83
2023/02/17 09:01:30;;;;;;;5.13;3.60;;;;;;;16.16;47.36;99609.97;7089238;27;20253;-83
2023/02/17 09:04:51;;;;;;;5.27;3.57;;;;;;;16.12;47.52;99603.31;7089820;27;20286;-83
2023/02/17 09:08:13;;;;;;;3.63;3.00;;;;;;;16.62;46.99;99615.03;7088634;27;20714;-83
2023/02/17 09:11:35;;;;;;;4.03;3.40;;;;;;;15.79;48.50;99596.44;7087949;27;20292;-82
2023/02/17 09:14:56;;;;;;;3.60;3.10;;;;;;;16.14;48.21;99600.34;7088534;27;20288;-84
2023/02/17 09:18:19;;;;;;;5.57;3.40;;;;;;;16.12;48.03;99616.06;7087303;27;20265;-83
2023/02/17 09:21:41;;;;;;;3.13;2.83;;;;;;;15.16;49.22;99522.13;7058488;28;20203;-82
2023/02/17 09:25:03;;;;;;;4.83;3.50;;;;;;;16.00;48.99;99626.84;7062874;28;20619;-81
2023/02/17 09:28:24;;;;;;;5.60;3.40;;;;;;;16.31;48.22;99623.25;7086943;27;20312;-81
2023/02/17 09:31:46;;;;;;;3.13;2.70;;;;;;;16.23;48.33;99624.34;7094695;27;20204;-79
2023/02/17 09:35:11;;;;;;;3.07;2.77;;;;;;;15.75;49.66;99631.38;7090913;27;20205;-80
2023/02/17 09:38:33;;;;;;;3.87;3.03;;;;;;;15.99;48.23;99587.06;7090149;27;20664;-80
2023/02/17 09:41:55;;;;;;;6.97;3.97;;;;;;;15.91;48.53;99576.47;7089414;27;20274;-81
2023/02/17 09:45:20;;;;;;;4.00;3.00;;;;;;;15.94;49.63;99629.59;7090190;27;20720;-84
2023/02/17 09:48:42;;;;;;;4.77;3.83;;;;;;;15.93;49.03;99589.84;7089411;27;20283;-85
2023/02/17 09:52:10;;;;;;;5.67;3.90;;;;;;;16.58;48.24;99639.16;7087848;27;20293;-81
2023/02/17 09:55:35;;;;;;;6.50;3.07;;;;;;;16.23;48.56;99634.41;7086142;27;20223;-84
2023/02/17 09:58:58;;;;;;;4.37;2.73;;;;;;;16.33;49.20;99623.88;7087229;27;20311;-81
2023/02/17 10:02:26;;;;;;;3.17;2.87;;;;;;;16.44;48.54;99631.31;7092622;27;20230;-85
2023/02/17 10:05:51;;;;;;;3.27;2.97;;;;;;;16.65;47.88;99620.03;7092639;27;20662;-82
2023/02/17 10:09:17;;;;;;;3.47;3.00;;;;;;;16.39;49.22;99633.91;7092894;27;20809;-81
2023/02/17 10:12:42;;;;;;;3.67;2.63;;;;;;;16.66;48.44;99622.56;7092756;27;20257;-81
2023/02/17 10:16:06;;;;;;;3.83;2.77;;;;;;;16.57;48.52;99633.97;7091362;27;20274;-80
2023/02/17 10:19:30;;;;;;;4.87;2.80;;;;;;;16.58;48.61;99641.88;7091998;27;20245;-81
2023/02/17 10:22:55;;;;;;;2.87;2.40;;;;;;;16.48;48.52;99629.84;7093454;27;20349;-80
2023/02/17 10:26:26;;;;;;;4.63;2.60;;;;;;;16.31;49.18;99639.56;7094628;27;20241;-79
2023/02/17 10:29:51;;;;;;;3.87;3.17;;;;;;;16.79;48.74;99635.19;7090994;27;20282;-80
2023/02/17 10:33:15;;;;;;;2.93;2.63;;;;;;;16.98;48.13;99626.00;7091663;27;20784;-80
2023/02/17 10:36:46;;;;;;;3.57;2.40;;;;;;;17.32;46.91;99589.94;7090985;27;20231;-80
2023/02/17 10:40:12;;;;;;;3.50;2.77;;;;;;;16.98;48.28;99621.38;7091012;27;20211;-80
2023/02/17 10:43:35;;;;;;;4.10;3.30;;;;;;;17.62;46.61;99601.72;7091302;27;20321;-80
2023/02/17 10:46:58;;;;;;;3.67;2.50;;;;;;;17.41;46.50;99572.25;7090738;27;20370;-80
2023/02/17 10:50:21;;;;;;;2.60;2.37;;;;;;;18.48;45.12;99613.88;7091290;27;20361;-81
2023/02/17 10:53:47;;;;;;;4.30;2.43;;;;;;;18.09;45.75;99606.28;7091069;27;20732;-80
2023/02/17 10:57:12;;;;;;;3.33;2.90;;;;;;;18.11;45.73;99596.78;7088806;27;20683;-81
2023/02/17 11:00:34;;;;;;;4.57;2.40;;;;;;;17.86;46.65;99606.25;7090330;27;20229;-80
2023/02/17 11:04:01;;;;;;;3.33;2.67;;;;;;;17.41;47.50;99603.09;7090670;27;20236;-80
2023/02/17 11:07:32;;;;;;;2.63;2.20;;;;;;;17.54;47.24;99597.44;7089876;27;20482;-80
2023/02/17 11:11:00;;;;;;;2.33;2.10;;;;;;;17.60;47.23;99591.06;7091571;27;20205;-80
2023/02/17 11:14:27;;;;;;;2.53;2.30;;;;;;;17.60;47.35;99604.72;7091986;27;20645;-80
2023/02/17 11:17:50;;;;;;;2.67;2.47;;;;;;;17.73;47.60;99587.31;7091069;27;20277;-81
2023/02/17 11:21:12;;;;;;;3.40;2.27;;;;;;;18.06;46.75;99585.78;7090519;27;20298;-80
2023/02/17 11:24:35;;;;;;;2.57;1.80;;;;;;;17.80;46.94;99556.16;7092340;27;20301;-80
2023/02/17 11:27:58;;;;;;;3.60;2.20;;;;;;;17.81;47.11;99574.19;7090006;27;20290;-79
2023/02/17 11:31:24;;;;;;;3.93;2.73;;;;;;;17.79;47.27;99564.56;7091139;27;20295;-80
2023/02/17 11:34:57;;;;;;;4.40;2.70;;;;;;;17.15;48.89;99542.59;7091574;27;20745;-81
2023/02/17 11:38:20;;;;;;;2.07;1.83;;;;;;;17.63;47.76;99568.78;7069515;28;20295;-80
2023/02/17 11:41:42;;;;;;;4.90;1.90;;;;;;;18.25;46.98;99556.47;7070980;27;20300;-79
2023/02/17 11:45:16;;;;;;;2.40;2.07;;;;;;;18.26;47.85;99563.59;7065424;28;20268;-80
2023/02/17 11:48:50;;;;;;;2.20;2.00;;;;;;;17.91;50.18;99549.03;7063800;28;20764;-80
2023/02/17 11:52:19;;;;;;;1.83;1.70;;;;;;;17.93;49.81;99561.38;7082534;27;20286;-80
2023/02/17 11:55:49;;;;;;;1.83;1.73;;;;;;;17.87;49.90;99535.03;7090875;27;21017;-81
2023/02/17 11:59:27;;;;;;;2.37;1.90;;;;;;;17.79;50.31;99559.94;7062113;28;20716;-80
2023/02/17 12:03:18;;;;;;;4.20;2.00;;;;;;;17.54;50.09;99575.63;7067150;27;20237;-80
2023/02/17 12:06:45;;;;;;;3.10;2.30;;;;;;;17.78;49.76;99571.94;7062159;27;20239;-80
2023/02/17 12:10:14;;;;;;;5.77;3.80;;;;;;;18.10;49.05;99575.22;7089555;27;20283;-80
2023/02/17 12:13:46;;;;;;;2.40;2.20;;;;;;;17.70;49.55;99582.34;7089649;27;20224;-80
2023/02/17 12:17:14;;;;;;;2.87;2.13;;;;;;;17.26;50.80;99569.91;7089117;27;20333;-80
2023/02/17 12:20:45;;;;;;;3.43;2.40;;;;;;;17.48;50.94;99571.09;7083327;27;20202;-80
2023/02/17 12:24:33;;;;;;;2.90;1.77;;;;;;;17.74;50.83;99576.19;7083999;27;20281;-80
2023/02/17 12:28:15;;;;;;;1.97;1.80;;;;;;;18.23;49.53;99581.25;7078817;27;20291;-80
2023/02/17 12:31:53;;;;;;;1.97;1.60;;;;;;;18.20;48.48;99583.63;7090936;27;20290;-80
2023/02/17 12:35:18;;;;;;;3.43;2.50;;;;;;;17.88;49.17;99577.63;7076510;27;20792;-80
2023/02/17 12:38:42;;;;;;;1.93;1.80;;;;;;;18.10;48.48;99561.56;7060816;28;20599;-81
2023/02/17 12:42:07;;;;;;;1.93;1.80;;;;;;;18.77;47.28;99578.25;7061232;28;20363;-79
2023/02/17 12:45:37;;;;;;;3.50;1.80;;;;;;;18.74;47.05;99565.06;7062569;28;20291;-80
2023/02/17 12:49:03;;;;;;;4.53;1.77;;;;;;;18.18;48.88;99569.41;7062110;28;20231;-80
2023/02/17 12:52:27;;;;;;;3.30;1.87;;;;;;;17.83;49.11;99525.69;7081953;27;20216;-79
2023/02/17 12:55:53;;;;;;;1.90;1.73;;;;;;;17.88;49.41;99563.16;7088752;27;20263;-80
2023/02/17 12:59:17;;;;;;;5.97;4.87;;;;;;;17.73;49.53;99547.25;7090152;27;20251;-80
2023/02/17 13:02:40;;;;;;;3.27;3.00;;;;;;;18.16;48.77;99550.53;7085563;27;20247;-79
2023/02/17 13:06:06;;;;;;;2.97;2.60;;;;;;;17.62;50.12;99548.03;7069259;27;20207;-80
2023/02/17 13:09:31;;;;;;;6.20;4.83;;;;;;;18.06;48.98;99544.84;7084757;27;20291;-80
2023/02/17 13:12:58;;;;;;;2.13;1.60;;;;;;;17.89;49.82;99543.00;7062568;28;20220;-80
2023/02/17 13:16:19;;;;;;;1.83;1.47;;;;;;;17.63;49.93;99538.78;7072636;27;20366;-79
2023/02/17 13:19:42;;;;;;;1.70;1.60;;;;;;;17.87;49.87;99550.59;7090824;27;20203;-80
2023/02/17 13:23:07;;;;;;;1.70;1.60;;;;;;;17.92;49.28;99521.53;7087253;27;20207;-80
2023/02/17 13:26:31;;;;;;;1.70;1.60;;;;;;;17.65;49.60;99539.41;7086938;27;20320;-80
2023/02/17 13:29:59;;;;;;;1.57;1.47;;;;;;;17.91;49.36;99540.88;7070691;28;20286;-81
2023/02/17 13:33:29;;;;;;;3.87;2.00;;;;;;;18.39;48.35;99547.84;7073035;27;20328;-80
2023/02/17 13:36:52;;;;;;;1.80;1.70;;;;;;;18.72;47.47;99542.63;7089922;27;20252;-81
2023/02/17 13:40:33;;;;;;;2.27;1.90;;;;;;;18.15;48.97;99539.84;7098598;27;20437;-79
2023/02/17 13:43:55;;;;;;;3.70;3.40;;;;;;;18.85;47.86;99536.03;7093874;27;20282;-79
2023/02/17 13:47:22;;;;;;;6.63;4.60;;;;;;;18.77;47.74;99539.16;7105806;27;20223;-79
2023/02/17 13:50:46;;;;;;;4.20;3.03;;;;;;;19.03;46.56;99535.88;7097948;27;20207;-80
2023/02/17 13:54:11;;;;;;;5.50;4.90;;;;;;;18.27;47.61;99489.66;7099872;27;20200;-80
2023/02/17 13:57:34;;;;;;;2.60;2.20;;;;;;;18.62;47.72;99520.53;7098308;27;20646;-79
2023/02/17 14:00:58;;;;;;;2.90;1.90;;;;;;;18.45;48.16;99510.59;7098763;27;20228;-80
2023/02/17 14:04:22;;;;;;;3.70;2.10;;;;;;;18.51;48.44;99535.00;7098778;27;20252;-79
2023/02/17 14:07:46;;;;;;;2.50;1.80;;;;;;;18.88;46.91;99520.00;7087014;27;20292;-79
2023/02/17 14:11:10;;;;;;;1.53;1.43;;;;;;;18.49;48.11;99512.59;7073400;28;20204;-80
2023/02/17 14:14:33;;;;;;;2.30;2.10;;;;;;;18.79;47.75;99512.41;7080884;27;20245;-80
2023/02/17 14:17:55;;;;;;;2.27;1.80;;;;;;;18.76;47.43;99504.72;7073988;27;20252;-79
2023/02/17 14:21:24;;;;;;;1.80;1.70;;;;;;;18.19;48.58;99484.56;7086179;27;20284;-79
2023/02/17 14:24:45;;;;;;;1.83;1.73;;;;;;;18.27;49.11;99516.13;7096535;27;20288;-79
2023/02/17 14:28:19;;;;;;;1.40;1.30;;;;;;;17.88;49.97;99512.16;7097469;27;20441;-79
2023/02/17 14:31:42;;;;;;;1.70;1.60;;;;;;;18.34;49.04;99511.41;7099586;27;20207;-79
2023/02/17 14:35:21;;;;;;;2.10;1.90;;;;;;;18.70;47.88;99528.34;7099615;27;20231;-79
2023/02/17 14:38:42;;;;;;;1.57;1.47;;;;;;;18.50;48.32;99516.13;7093229;27;20308;-79
2023/02/17 14:42:04;;;;;;;1.93;1.77;;;;;;;18.06;49.83;99495.72;7091554;27;20539;-79
2023/02/17 14:45:27;;;;;;;2.10;1.90;;;;;;;18.55;49.20;99508.91;7091224;27;20586;-79
2023/02/17 14:48:49;;;;;;;2.50;1.80;;;;;;;18.80;48.10;99508.63;7090650;27;20234;-80
2023/02/17 14:52:18;;;;;;;3.03;2.17;;;;;;;19.00;47.82;99504.44;7091220;27;20303;-80
2023/02/17 14:55:45;;;;;;;2.00;1.80;;;;;;;18.74;47.58;99476.81;7090489;27;20718;-81
2023/02/17 14:59:06;;;;;;;2.17;1.97;;;;;;;18.82;47.46;99506.47;7089442;27;20231;-81
2023/02/17 15:02:30;;;;;;;3.13;1.87;;;;;;;18.93;47.54;99484.56;7089320;27;20297;-80
2023/02/17 15:05:53;;;;;;;2.80;1.80;;;;;;;19.35;46.54;99507.06;7089187;27;20721;-80
2023/02/17 15:09:17;;;;;;;3.20;2.80;;;;;;;18.45;48.16;99480.53;7088647;27;20238;-80
2023/02/17 15:12:38;;;;;;;1.80;1.70;;;;;;;18.41;48.49;99498.47;7090187;27;20203;-80
2023/02/17 15:16:00;;;;;;;2.27;2.07;;;;;;;18.46;48.81;99504.03;7090531;27;20513;-80
2023/02/17 15:19:23;;;;;;;2.10;1.97;;;;;;;18.37;48.71;99489.91;7090403;27;20310;-81
2023/02/17 15:22:45;;;;;;;2.20;2.00;;;;;;;18.70;48.09;99492.00;7090073;27;20218;-82
2023/02/17 15:26:09;;;;;;;2.43;2.23;;;;;;;18.64;48.05;99490.25;7090035;27;20229;-79
2023/02/17 15:29:31;;;;;;;2.10;1.90;;;;;;;19.52;46.06;99480.59;7089771;27;20227;-80
2023/02/17 15:32:52;;;;;;;2.90;2.20;;;;;;;19.16;46.34;99500.91;7090357;27;20286;-85
2023/02/17 15:36:17;;;;;;;2.50;2.30;;;;;;;18.86;47.04;99508.47;7089906;27;20203;-81
2023/02/17 15:39:38;;;;;;;3.80;2.10;;;;;;;18.59;47.76;99509.25;7089325;27;20319;-81
2023/02/17 15:43:02;;;;;;;2.17;1.97;;;;;;;18.84;47.06;99496.13;7090114;27;20267;-82
2023/02/17 15:46:28;;;;;;;3.90;2.00;;;;;;;18.39;48.48;99506.06;7088989;27;20208;-79
2023/02/17 15:49:49;;;;;;;5.00;2.30;;;;;;;18.57;47.63;99495.81;7089787;27;20295;-81
2023/02/17 15:53:12;;;;;;;2.70;2.33;;;;;;;18.32;48.52;99508.91;7089374;27;20730;-80
2023/02/17 15:56:38;;;;;;;3.70;2.27;;;;;;;18.79;47.28;99506.94;7099841;27;20204;-81
2023/02/17 16:00:00;;;;;;;4.43;2.13;;;;;;;17.51;49.88;99482.56;7095243;27;20241;-78
2023/02/17 16:03:21;;;;;;;2.00;1.83;;;;;;;18.55;47.87;99497.97;7093832;27;20203;-81
2023/02/17 16:06:43;;;;;;;2.20;2.00;;;;;;;17.96;49.03;99492.72;7093329;27;20384;-81